sensor_id;sensor_type;location;lat;lon;timestamp;temperature;humidity
16408;DHT22;8313;49.894;8.084;2024-02-21T00:02:05;8.40;99.90
16408;DHT22;8313;49.894;8.084;2024-02-21T00:04:31;8.40;99.90
16408;DHT22;8313;49.894;8.084;2024-02-21T00:06:57;8.30;99.90
16408;DHT22;8313;49.894;8.084;2024-02-21T00:09:22;8.30;99.90
16408;DHT22;8313;49.894;8.084;2024-02-21T00:11:48;8.30;99.90
16408;DHT22;8313;49.894;8.084;2024-02-21T00:14:14;8.40;99.90
16408;DHT22;8313;49.894;8.084;2024-02-21T00:16:39;8.30;99.90
16408;DHT22;8313;49.894;8.084;2024-02-21T00:19:08;8.30;99.90
16408;DHT22;8313;49.894;8.084;2024-02-21T00:21:34;8.40;99.90
16408;DHT22;8313;49.894;8.084;2024-02-21T00:24:00;8.30;99.90
16408;DHT22;8313;49.894;8.084;2024-02-21T00:26:25;8.30;99.90
16408;DHT22;8313;49.894;8.084;2024-02-21T00:28:51;8.30;99.90
16408;DHT22;8313;49.894;8.084;2024-02-21T00:31:17;8.40;99.90
16408;DHT22;8313;49.894;8.084;2024-02-21T00:33:42;8.40;99.90
16408;DHT22;8313;49.894;8.084;2024-02-21T00:36:08;8.40;99.90
16408;DHT22;8313;49.894;8.084;2024-02-21T00:38:34;8.30;99.90
16408;DHT22;8313;49.894;8.084;2024-02-21T00:40:59;8.30;99.90
16408;DHT22;8313;49.894;8.084;2024-02-21T00:43:25;8.30;99.90
16408;DHT22;8313;49.894;8.084;2024-02-21T00:45:51;8.40;99.90
16408;DHT22;8313;49.894;8.084;2024-02-21T00:48:17;8.40;99.90
16408;DHT22;8313;49.894;8.084;2024-02-21T00:50:42;8.20;99.90
16408;DHT22;8313;49.894;8.084;2024-02-21T00:53:08;8.20;99.90
16408;DHT22;8313;49.894;8.084;2024-02-21T00:55:35;8.30;99.90
16408;DHT22;8313;49.894;8.084;2024-02-21T00:58:01;8.30;99.90
16408;DHT22;8313;49.894;8.084;2024-02-21T01:00:27;8.30;99.90
16408;DHT22;8313;49.894;8.084;2024-02-21T01:02:52;8.20;99.90
16408;DHT22;8313;49.894;8.084;2024-02-21T01:05:18;8.20;99.90
16408;DHT22;8313;49.894;8.084;2024-02-21T01:07:45;8.20;99.90
16408;DHT22;8313;49.894;8.084;2024-02-21T01:10:10;8.10;99.90
16408;DHT22;8313;49.894;8.084;2024-02-21T01:12:36;8.10;99.90
16408;DHT22;8313;49.894;8.084;2024-02-21T01:15:02;8.00;99.90
16408;DHT22;8313;49.894;8.084;2024-02-21T01:17:28;8.00;99.90
16408;DHT22;8313;49.894;8.084;2024-02-21T01:19:54;8.00;99.90
16408;DHT22;8313;49.894;8.084;2024-02-21T01:22:19;8.00;99.90
16408;DHT22;8313;49.894;8.084;2024-02-21T01:24:45;7.90;99.90
16408;DHT22;8313;49.894;8.084;2024-02-21T01:27:10;8.00;99.90
16408;DHT22;8313;49.894;8.084;2024-02-21T01:29:37;8.00;99.90
16408;DHT22;8313;49.894;8.084;2024-02-21T01:32:02;8.00;99.90
16408;DHT22;8313;49.894;8.084;2024-02-21T01:34:28;8.00;99.90
16408;DHT22;8313;49.894;8.084;2024-02-21T01:36:54;8.10;99.90
16408;DHT22;8313;49.894;8.084;2024-02-21T01:39:19;8.20;99.90
16408;DHT22;8313;49.894;8.084;2024-02-21T01:41:45;8.30;99.90
16408;DHT22;8313;49.894;8.084;2024-02-21T01:44:11;8.30;99.90
16408;DHT22;8313;49.894;8.084;2024-02-21T01:46:36;8.40;99.90
16408;DHT22;8313;49.894;8.084;2024-02-21T01:49:02;8.40;99.90
16408;DHT22;8313;49.894;8.084;2024-02-21T01:51:28;8.40;99.90
16408;DHT22;8313;49.894;8.084;2024-02-21T01:53:55;8.50;99.90
16408;DHT22;8313;49.894;8.084;2024-02-21T01:56:22;8.50;99.90
16408;DHT22;8313;49.894;8.084;2024-02-21T01:58:48;8.40;99.90
16408;DHT22;8313;49.894;8.084;2024-02-21T02:01:14;8.40;99.90
16408;DHT22;8313;49.894;8.084;2024-02-21T02:03:40;8.50;99.90
16408;DHT22;8313;49.894;8.084;2024-02-21T02:06:06;8.40;99.90
16408;DHT22;8313;49.894;8.084;2024-02-21T02:08:32;8.30;99.90
16408;DHT22;8313;49.894;8.084;2024-02-21T02:10:59;8.30;99.90
16408;DHT22;8313;49.894;8.084;2024-02-21T02:13:25;8.30;99.90
16408;DHT22;8313;49.894;8.084;2024-02-21T02:15:51;8.30;99.90
16408;DHT22;8313;49.894;8.084;2024-02-21T02:18:17;8.30;99.90
16408;DHT22;8313;49.894;8.084;2024-02-21T02:20:44;8.20;99.90
16408;DHT22;8313;49.894;8.084;2024-02-21T02:23:30;8.20;99.90
16408;DHT22;8313;49.894;8.084;2024-02-21T02:25:59;8.30;99.90
16408;DHT22;8313;49.894;8.084;2024-02-21T02:28:26;8.30;99.90
16408;DHT22;8313;49.894;8.084;2024-02-21T02:30:52;8.30;99.90
16408;DHT22;8313;49.894;8.084;2024-02-21T02:33:18;8.40;99.90
16408;DHT22;8313;49.894;8.084;2024-02-21T02:35:44;8.40;99.90
16408;DHT22;8313;49.894;8.084;2024-02-21T02:38:10;8.50;99.90
16408;DHT22;8313;49.894;8.084;2024-02-21T02:40:38;8.50;99.90
16408;DHT22;8313;49.894;8.084;2024-02-21T02:43:04;8.50;99.90
16408;DHT22;8313;49.894;8.084;2024-02-21T02:45:30;8.50;99.90
16408;DHT22;8313;49.894;8.084;2024-02-21T02:47:57;8.50;99.90
16408;DHT22;8313;49.894;8.084;2024-02-21T02:50:26;8.50;99.90
16408;DHT22;8313;49.894;8.084;2024-02-21T02:52:53;8.50;99.90
16408;DHT22;8313;49.894;8.084;2024-02-21T02:55:19;8.50;99.90
16408;DHT22;8313;49.894;8.084;2024-02-21T02:57:45;8.50;99.90
16408;DHT22;8313;49.894;8.084;2024-02-21T03:00:12;8.50;99.90
16408;DHT22;8313;49.894;8.084;2024-02-21T03:02:39;8.40;99.90
16408;DHT22;8313;49.894;8.084;2024-02-21T03:05:19;8.40;99.90
16408;DHT22;8313;49.894;8.084;2024-02-21T03:07:45;8.40;99.90
16408;DHT22;8313;49.894;8.084;2024-02-21T03:10:11;8.40;99.90
16408;DHT22;8313;49.894;8.084;2024-02-21T03:12:37;8.50;99.90
16408;DHT22;8313;49.894;8.084;2024-02-21T03:15:04;8.50;99.90
16408;DHT22;8313;49.894;8.084;2024-02-21T03:17:30;8.50;99.90
16408;DHT22;8313;49.894;8.084;2024-02-21T03:19:57;8.50;99.90
16408;DHT22;8313;49.894;8.084;2024-02-21T03:22:22;8.50;99.90
16408;DHT22;8313;49.894;8.084;2024-02-21T03:24:48;8.50;99.90
16408;DHT22;8313;49.894;8.084;2024-02-21T03:27:14;8.50;99.90
16408;DHT22;8313;49.894;8.084;2024-02-21T03:29:40;8.50;99.90
16408;DHT22;8313;49.894;8.084;2024-02-21T03:32:05;8.50;99.90
16408;DHT22;8313;49.894;8.084;2024-02-21T03:34:31;8.50;99.90
16408;DHT22;8313;49.894;8.084;2024-02-21T03:36:56;8.50;99.90
16408;DHT22;8313;49.894;8.084;2024-02-21T03:39:22;8.40;99.90
16408;DHT22;8313;49.894;8.084;2024-02-21T03:41:48;8.50;99.90
16408;DHT22;8313;49.894;8.084;2024-02-21T03:44:14;8.50;99.90
16408;DHT22;8313;49.894;8.084;2024-02-21T03:46:39;8.40;99.90
16408;DHT22;8313;49.894;8.084;2024-02-21T03:49:05;8.40;99.90
16408;DHT22;8313;49.894;8.084;2024-02-21T03:51:31;8.40;99.90
16408;DHT22;8313;49.894;8.084;2024-02-21T03:53:56;8.30;99.90
16408;DHT22;8313;49.894;8.084;2024-02-21T03:56:22;8.20;99.90
16408;DHT22;8313;49.894;8.084;2024-02-21T03:58:48;8.20;99.90
16408;DHT22;8313;49.894;8.084;2024-02-21T04:01:15;8.20;99.90
16408;DHT22;8313;49.894;8.084;2024-02-21T04:03:41;8.30;99.90
16408;DHT22;8313;49.894;8.084;2024-02-21T04:06:07;8.20;99.90
16408;DHT22;8313;49.894;8.084;2024-02-21T04:08:33;8.00;99.90
16408;DHT22;8313;49.894;8.084;2024-02-21T04:10:59;8.00;99.90
16408;DHT22;8313;49.894;8.084;2024-02-21T04:13:24;8.10;99.90
16408;DHT22;8313;49.894;8.084;2024-02-21T04:15:51;8.20;99.90
16408;DHT22;8313;49.894;8.084;2024-02-21T04:18:16;8.20;99.90
16408;DHT22;8313;49.894;8.084;2024-02-21T04:20:42;8.10;99.90
16408;DHT22;8313;49.894;8.084;2024-02-21T04:23:08;8.10;99.90
16408;DHT22;8313;49.894;8.084;2024-02-21T04:25:33;8.20;99.90
16408;DHT22;8313;49.894;8.084;2024-02-21T04:27:59;8.20;99.90
16408;DHT22;8313;49.894;8.084;2024-02-21T04:30:25;8.30;99.90
16408;DHT22;8313;49.894;8.084;2024-02-21T04:32:50;8.30;99.90
16408;DHT22;8313;49.894;8.084;2024-02-21T04:35:16;8.30;99.90
16408;DHT22;8313;49.894;8.084;2024-02-21T04:37:42;8.30;99.90
16408;DHT22;8313;49.894;8.084;2024-02-21T04:40:08;8.30;99.90
16408;DHT22;8313;49.894;8.084;2024-02-21T04:42:34;8.30;99.90
16408;DHT22;8313;49.894;8.084;2024-02-21T04:45:00;8.30;99.90
16408;DHT22;8313;49.894;8.084;2024-02-21T04:47:27;8.30;99.90
16408;DHT22;8313;49.894;8.084;2024-02-21T04:49:52;8.30;99.90
16408;DHT22;8313;49.894;8.084;2024-02-21T04:52:18;8.40;99.90
16408;DHT22;8313;49.894;8.084;2024-02-21T04:54:44;8.30;99.90
16408;DHT22;8313;49.894;8.084;2024-02-21T04:57:09;8.30;99.90
16408;DHT22;8313;49.894;8.084;2024-02-21T04:59:36;8.20;99.90
16408;DHT22;8313;49.894;8.084;2024-02-21T05:02:02;8.10;99.90
16408;DHT22;8313;49.894;8.084;2024-02-21T05:04:28;8.20;99.90
16408;DHT22;8313;49.894;8.084;2024-02-21T05:06:54;8.20;99.90
16408;DHT22;8313;49.894;8.084;2024-02-21T05:09:20;8.20;99.90
16408;DHT22;8313;49.894;8.084;2024-02-21T05:11:46;8.20;99.90
16408;DHT22;8313;49.894;8.084;2024-02-21T05:14:11;8.00;99.90
16408;DHT22;8313;49.894;8.084;2024-02-21T05:16:38;7.90;99.90
16408;DHT22;8313;49.894;8.084;2024-02-21T05:19:05;7.80;99.90
16408;DHT22;8313;49.894;8.084;2024-02-21T05:21:30;7.80;99.90
16408;DHT22;8313;49.894;8.084;2024-02-21T05:23:56;7.80;99.90
16408;DHT22;8313;49.894;8.084;2024-02-21T05:26:23;7.80;99.90
16408;DHT22;8313;49.894;8.084;2024-02-21T05:28:49;7.90;99.90
16408;DHT22;8313;49.894;8.084;2024-02-21T05:31:19;7.80;99.90
16408;DHT22;8313;49.894;8.084;2024-02-21T05:33:45;7.80;99.90
16408;DHT22;8313;49.894;8.084;2024-02-21T05:36:11;7.60;99.90
16408;DHT22;8313;49.894;8.084;2024-02-21T05:38:37;7.60;99.90
16408;DHT22;8313;49.894;8.084;2024-02-21T05:41:03;7.50;99.90
16408;DHT22;8313;49.894;8.084;2024-02-21T05:43:29;7.40;99.90
16408;DHT22;8313;49.894;8.084;2024-02-21T05:45:55;7.30;99.90
16408;DHT22;8313;49.894;8.084;2024-02-21T05:48:22;7.30;99.90
16408;DHT22;8313;49.894;8.084;2024-02-21T05:50:47;7.30;99.90
16408;DHT22;8313;49.894;8.084;2024-02-21T05:53:13;7.30;99.90
16408;DHT22;8313;49.894;8.084;2024-02-21T05:55:39;7.20;99.90
16408;DHT22;8313;49.894;8.084;2024-02-21T05:58:05;7.30;99.90
16408;DHT22;8313;49.894;8.084;2024-02-21T06:00:39;7.20;99.90
16408;DHT22;8313;49.894;8.084;2024-02-21T06:03:05;7.30;99.90
16408;DHT22;8313;49.894;8.084;2024-02-21T06:05:31;7.40;99.90
16408;DHT22;8313;49.894;8.084;2024-02-21T06:07:57;7.40;99.90
16408;DHT22;8313;49.894;8.084;2024-02-21T06:10:23;7.50;99.90
16408;DHT22;8313;49.894;8.084;2024-02-21T06:12:48;7.50;99.90
16408;DHT22;8313;49.894;8.084;2024-02-21T06:15:14;7.30;99.90
16408;DHT22;8313;49.894;8.084;2024-02-21T06:17:40;7.30;99.90
16408;DHT22;8313;49.894;8.084;2024-02-21T06:20:06;7.40;99.90
16408;DHT22;8313;49.894;8.084;2024-02-21T06:22:31;7.30;99.90
16408;DHT22;8313;49.894;8.084;2024-02-21T06:24:57;7.30;99.90
16408;DHT22;8313;49.894;8.084;2024-02-21T06:27:23;7.20;99.90
16408;DHT22;8313;49.894;8.084;2024-02-21T06:29:49;7.20;99.90
16408;DHT22;8313;49.894;8.084;2024-02-21T06:32:15;7.10;99.90
16408;DHT22;8313;49.894;8.084;2024-02-21T06:34:41;7.10;99.90
16408;DHT22;8313;49.894;8.084;2024-02-21T06:37:06;7.10;99.90
16408;DHT22;8313;49.894;8.084;2024-02-21T06:39:32;7.00;99.90
16408;DHT22;8313;49.894;8.084;2024-02-21T06:41:58;7.00;99.90
16408;DHT22;8313;49.894;8.084;2024-02-21T06:44:23;7.00;99.90
16408;DHT22;8313;49.894;8.084;2024-02-21T06:46:49;7.00;99.90
16408;DHT22;8313;49.894;8.084;2024-02-21T06:49:14;7.00;99.90
16408;DHT22;8313;49.894;8.084;2024-02-21T06:51:44;6.90;99.90
16408;DHT22;8313;49.894;8.084;2024-02-21T06:54:10;6.90;99.90
16408;DHT22;8313;49.894;8.084;2024-02-21T06:56:37;6.90;99.90
16408;DHT22;8313;49.894;8.084;2024-02-21T06:59:03;6.90;99.90
16408;DHT22;8313;49.894;8.084;2024-02-21T07:01:29;6.90;99.90
16408;DHT22;8313;49.894;8.084;2024-02-21T07:03:56;7.10;99.90
16408;DHT22;8313;49.894;8.084;2024-02-21T07:06:22;7.00;99.90
16408;DHT22;8313;49.894;8.084;2024-02-21T07:08:47;7.00;99.90
16408;DHT22;8313;49.894;8.084;2024-02-21T07:11:13;7.00;99.90
16408;DHT22;8313;49.894;8.084;2024-02-21T07:13:39;7.20;99.90
16408;DHT22;8313;49.894;8.084;2024-02-21T07:16:05;7.20;99.90
16408;DHT22;8313;49.894;8.084;2024-02-21T07:18:31;7.30;99.90
16408;DHT22;8313;49.894;8.084;2024-02-21T07:20:57;7.30;99.90
16408;DHT22;8313;49.894;8.084;2024-02-21T07:23:23;7.30;99.90
16408;DHT22;8313;49.894;8.084;2024-02-21T07:25:49;7.30;99.90
16408;DHT22;8313;49.894;8.084;2024-02-21T07:28:15;7.40;99.90
16408;DHT22;8313;49.894;8.084;2024-02-21T07:30:42;7.50;99.90
16408;DHT22;8313;49.894;8.084;2024-02-21T07:33:07;7.40;99.90
16408;DHT22;8313;49.894;8.084;2024-02-21T07:35:33;7.50;99.90
16408;DHT22;8313;49.894;8.084;2024-02-21T07:37:59;7.40;99.90
16408;DHT22;8313;49.894;8.084;2024-02-21T07:40:24;7.40;99.90
16408;DHT22;8313;49.894;8.084;2024-02-21T07:42:50;7.40;99.90
16408;DHT22;8313;49.894;8.084;2024-02-21T07:45:16;7.40;99.90
16408;DHT22;8313;49.894;8.084;2024-02-21T07:47:41;7.50;99.90
16408;DHT22;8313;49.894;8.084;2024-02-21T07:50:07;7.60;99.90
16408;DHT22;8313;49.894;8.084;2024-02-21T07:52:33;7.60;99.90
16408;DHT22;8313;49.894;8.084;2024-02-21T07:54:59;7.60;99.90
16408;DHT22;8313;49.894;8.084;2024-02-21T07:57:25;7.60;99.90
16408;DHT22;8313;49.894;8.084;2024-02-21T07:59:50;7.60;99.90
16408;DHT22;8313;49.894;8.084;2024-02-21T08:02:17;7.50;99.90
16408;DHT22;8313;49.894;8.084;2024-02-21T08:04:43;7.50;99.90
16408;DHT22;8313;49.894;8.084;2024-02-21T08:07:09;7.50;99.90
16408;DHT22;8313;49.894;8.084;2024-02-21T08:09:35;7.60;99.90
16408;DHT22;8313;49.894;8.084;2024-02-21T08:12:04;7.60;99.90
16408;DHT22;8313;49.894;8.084;2024-02-21T08:14:29;7.60;99.90
16408;DHT22;8313;49.894;8.084;2024-02-21T08:16:55;7.60;99.90
16408;DHT22;8313;49.894;8.084;2024-02-21T08:19:21;7.60;99.90
16408;DHT22;8313;49.894;8.084;2024-02-21T08:21:48;7.60;99.90
16408;DHT22;8313;49.894;8.084;2024-02-21T08:24:14;7.60;99.90
16408;DHT22;8313;49.894;8.084;2024-02-21T08:26:44;7.70;99.90
16408;DHT22;8313;49.894;8.084;2024-02-21T08:29:12;7.70;99.90
16408;DHT22;8313;49.894;8.084;2024-02-21T08:31:38;7.60;99.90
16408;DHT22;8313;49.894;8.084;2024-02-21T08:34:04;7.70;99.90
16408;DHT22;8313;49.894;8.084;2024-02-21T08:36:30;7.80;99.90
16408;DHT22;8313;49.894;8.084;2024-02-21T08:38:57;7.70;99.90
16408;DHT22;8313;49.894;8.084;2024-02-21T08:41:26;7.70;99.90
16408;DHT22;8313;49.894;8.084;2024-02-21T08:43:52;7.70;99.90
16408;DHT22;8313;49.894;8.084;2024-02-21T08:46:28;7.80;99.90
16408;DHT22;8313;49.894;8.084;2024-02-21T08:48:54;7.70;99.90
16408;DHT22;8313;49.894;8.084;2024-02-21T08:51:20;7.80;99.90
16408;DHT22;8313;49.894;8.084;2024-02-21T08:53:46;7.80;99.90
16408;DHT22;8313;49.894;8.084;2024-02-21T08:56:12;7.80;99.90
16408;DHT22;8313;49.894;8.084;2024-02-21T08:58:39;7.90;99.90
16408;DHT22;8313;49.894;8.084;2024-02-21T09:01:05;7.90;99.90
16408;DHT22;8313;49.894;8.084;2024-02-21T09:03:35;8.00;99.90
16408;DHT22;8313;49.894;8.084;2024-02-21T09:06:01;8.10;99.90
16408;DHT22;8313;49.894;8.084;2024-02-21T09:08:27;8.10;99.90
16408;DHT22;8313;49.894;8.084;2024-02-21T09:10:53;8.10;99.90
16408;DHT22;8313;49.894;8.084;2024-02-21T09:13:19;8.20;99.90
16408;DHT22;8313;49.894;8.084;2024-02-21T09:15:44;8.20;99.90
16408;DHT22;8313;49.894;8.084;2024-02-21T09:18:10;8.30;99.90
16408;DHT22;8313;49.894;8.084;2024-02-21T09:20:36;8.30;99.90
16408;DHT22;8313;49.894;8.084;2024-02-21T09:23:02;8.30;99.90
16408;DHT22;8313;49.894;8.084;2024-02-21T09:25:27;8.40;99.90
16408;DHT22;8313;49.894;8.084;2024-02-21T09:27:56;8.40;99.90
16408;DHT22;8313;49.894;8.084;2024-02-21T09:30:23;8.50;99.90
16408;DHT22;8313;49.894;8.084;2024-02-21T09:32:49;8.60;99.90
16408;DHT22;8313;49.894;8.084;2024-02-21T09:35:15;8.60;99.90
16408;DHT22;8313;49.894;8.084;2024-02-21T09:37:41;8.70;99.90
16408;DHT22;8313;49.894;8.084;2024-02-21T09:40:07;8.70;99.90
16408;DHT22;8313;49.894;8.084;2024-02-21T09:42:42;8.80;99.90
16408;DHT22;8313;49.894;8.084;2024-02-21T09:45:23;8.90;99.90
16408;DHT22;8313;49.894;8.084;2024-02-21T09:50:34;9.00;99.90
16408;DHT22;8313;49.894;8.084;2024-02-21T09:53:02;9.10;99.90
16408;DHT22;8313;49.894;8.084;2024-02-21T09:55:31;9.20;99.90
16408;DHT22;8313;49.894;8.084;2024-02-21T09:58:01;9.10;99.90
16408;DHT22;8313;49.894;8.084;2024-02-21T10:00:27;9.20;99.90
16408;DHT22;8313;49.894;8.084;2024-02-21T10:02:53;9.30;99.90
16408;DHT22;8313;49.894;8.084;2024-02-21T10:05:19;9.30;99.90
16408;DHT22;8313;49.894;8.084;2024-02-21T10:07:45;9.40;99.90
16408;DHT22;8313;49.894;8.084;2024-02-21T10:10:11;9.40;99.90
16408;DHT22;8313;49.894;8.084;2024-02-21T10:12:36;9.40;99.90
16408;DHT22;8313;49.894;8.084;2024-02-21T10:15:12;9.50;99.90
16408;DHT22;8313;49.894;8.084;2024-02-21T10:17:38;9.50;99.90
16408;DHT22;8313;49.894;8.084;2024-02-21T10:20:10;9.50;99.90
16408;DHT22;8313;49.894;8.084;2024-02-21T10:22:38;9.50;99.90
16408;DHT22;8313;49.894;8.084;2024-02-21T10:25:11;9.50;99.90
16408;DHT22;8313;49.894;8.084;2024-02-21T10:27:38;9.50;99.90
16408;DHT22;8313;49.894;8.084;2024-02-21T10:30:12;9.50;99.90
16408;DHT22;8313;49.894;8.084;2024-02-21T10:32:51;9.60;99.90
16408;DHT22;8313;49.894;8.084;2024-02-21T10:35:26;9.60;99.90
16408;DHT22;8313;49.894;8.084;2024-02-21T10:37:53;9.70;99.90
16408;DHT22;8313;49.894;8.084;2024-02-21T10:40:28;9.70;99.90
16408;DHT22;8313;49.894;8.084;2024-02-21T10:42:57;9.70;99.90
16408;DHT22;8313;49.894;8.084;2024-02-21T10:45:30;9.70;99.90
16408;DHT22;8313;49.894;8.084;2024-02-21T10:48:11;9.70;99.90
16408;DHT22;8313;49.894;8.084;2024-02-21T10:59:00;9.80;99.90
16408;DHT22;8313;49.894;8.084;2024-02-21T11:01:26;9.80;99.90
16408;DHT22;8313;49.894;8.084;2024-02-21T11:03:56;9.90;99.90
16408;DHT22;8313;49.894;8.084;2024-02-21T11:06:23;9.90;99.90
16408;DHT22;8313;49.894;8.084;2024-02-21T11:11:26;10.00;99.90
16408;DHT22;8313;49.894;8.084;2024-02-21T11:13:51;9.90;99.90
16408;DHT22;8313;49.894;8.084;2024-02-21T11:16:23;10.00;99.90
16408;DHT22;8313;49.894;8.084;2024-02-21T11:18:49;10.00;99.90
16408;DHT22;8313;49.894;8.084;2024-02-21T11:21:15;10.00;99.90
16408;DHT22;8313;49.894;8.084;2024-02-21T11:23:41;10.00;99.90
16408;DHT22;8313;49.894;8.084;2024-02-21T11:26:10;10.00;99.90
16408;DHT22;8313;49.894;8.084;2024-02-21T11:28:44;10.00;99.90
16408;DHT22;8313;49.894;8.084;2024-02-21T11:31:13;10.00;99.90
16408;DHT22;8313;49.894;8.084;2024-02-21T11:33:43;10.10;99.90
16408;DHT22;8313;49.894;8.084;2024-02-21T11:36:09;10.10;99.90
16408;DHT22;8313;49.894;8.084;2024-02-21T11:38:35;10.10;99.90
16408;DHT22;8313;49.894;8.084;2024-02-21T11:41:01;10.10;99.90
16408;DHT22;8313;49.894;8.084;2024-02-21T11:43:27;10.10;99.90
16408;DHT22;8313;49.894;8.084;2024-02-21T11:46:00;10.10;99.90
16408;DHT22;8313;49.894;8.084;2024-02-21T11:48:26;10.10;99.90
16408;DHT22;8313;49.894;8.084;2024-02-21T11:50:56;10.10;99.90
16408;DHT22;8313;49.894;8.084;2024-02-21T11:53:22;10.20;99.90
16408;DHT22;8313;49.894;8.084;2024-02-21T11:55:48;10.10;99.90
16408;DHT22;8313;49.894;8.084;2024-02-21T11:58:15;10.10;99.90
16408;DHT22;8313;49.894;8.084;2024-02-21T12:00:41;10.20;99.90
16408;DHT22;8313;49.894;8.084;2024-02-21T12:03:07;10.20;99.90
16408;DHT22;8313;49.894;8.084;2024-02-21T12:05:33;10.20;99.90
16408;DHT22;8313;49.894;8.084;2024-02-21T12:07:59;10.20;99.90
16408;DHT22;8313;49.894;8.084;2024-02-21T12:10:26;10.10;99.90
16408;DHT22;8313;49.894;8.084;2024-02-21T12:12:53;10.20;99.90
16408;DHT22;8313;49.894;8.084;2024-02-21T12:15:23;10.20;99.90
16408;DHT22;8313;49.894;8.084;2024-02-21T12:17:49;10.20;99.90
16408;DHT22;8313;49.894;8.084;2024-02-21T12:20:17;10.20;99.90
16408;DHT22;8313;49.894;8.084;2024-02-21T12:22:43;10.20;99.90
16408;DHT22;8313;49.894;8.084;2024-02-21T12:25:19;10.30;99.90
16408;DHT22;8313;49.894;8.084;2024-02-21T12:27:48;10.30;99.90
16408;DHT22;8313;49.894;8.084;2024-02-21T12:30:15;10.30;99.90
16408;DHT22;8313;49.894;8.084;2024-02-21T12:32:41;10.30;99.90
16408;DHT22;8313;49.894;8.084;2024-02-21T12:35:07;10.30;99.90
16408;DHT22;8313;49.894;8.084;2024-02-21T12:37:33;10.30;99.90
16408;DHT22;8313;49.894;8.084;2024-02-21T12:39:59;10.30;99.90
16408;DHT22;8313;49.894;8.084;2024-02-21T12:42:25;10.20;99.90
16408;DHT22;8313;49.894;8.084;2024-02-21T12:44:52;10.30;99.90
16408;DHT22;8313;49.894;8.084;2024-02-21T12:47:18;10.30;99.90
16408;DHT22;8313;49.894;8.084;2024-02-21T12:49:45;10.30;99.90
16408;DHT22;8313;49.894;8.084;2024-02-21T12:52:11;10.20;99.90
16408;DHT22;8313;49.894;8.084;2024-02-21T12:54:37;10.30;99.90
16408;DHT22;8313;49.894;8.084;2024-02-21T12:57:03;10.30;99.90
16408;DHT22;8313;49.894;8.084;2024-02-21T12:59:29;10.30;99.90
16408;DHT22;8313;49.894;8.084;2024-02-21T13:01:55;10.30;99.90
16408;DHT22;8313;49.894;8.084;2024-02-21T13:04:21;10.30;99.90
16408;DHT22;8313;49.894;8.084;2024-02-21T13:06:48;10.30;99.90
16408;DHT22;8313;49.894;8.084;2024-02-21T13:09:14;10.30;99.90
16408;DHT22;8313;49.894;8.084;2024-02-21T13:11:40;10.30;99.90
16408;DHT22;8313;49.894;8.084;2024-02-21T13:14:07;10.30;99.90
16408;DHT22;8313;49.894;8.084;2024-02-21T13:16:32;10.40;99.90
16408;DHT22;8313;49.894;8.084;2024-02-21T13:19:05;10.40;99.90
16408;DHT22;8313;49.894;8.084;2024-02-21T13:21:31;10.40;99.90
16408;DHT22;8313;49.894;8.084;2024-02-21T13:23:56;10.40;99.90
16408;DHT22;8313;49.894;8.084;2024-02-21T13:26:22;10.40;99.90
16408;DHT22;8313;49.894;8.084;2024-02-21T13:28:48;10.40;99.90
16408;DHT22;8313;49.894;8.084;2024-02-21T13:31:14;10.40;99.90
16408;DHT22;8313;49.894;8.084;2024-02-21T13:33:42;10.40;99.90
16408;DHT22;8313;49.894;8.084;2024-02-21T13:36:09;10.50;99.90
16408;DHT22;8313;49.894;8.084;2024-02-21T13:38:35;10.40;99.90
16408;DHT22;8313;49.894;8.084;2024-02-21T13:41:01;10.40;99.90
16408;DHT22;8313;49.894;8.084;2024-02-21T13:43:26;10.40;99.90
16408;DHT22;8313;49.894;8.084;2024-02-21T13:45:57;10.40;99.90
16408;DHT22;8313;49.894;8.084;2024-02-21T13:48:24;10.40;99.90
16408;DHT22;8313;49.894;8.084;2024-02-21T13:50:50;10.40;99.90
16408;DHT22;8313;49.894;8.084;2024-02-21T13:53:16;10.40;99.90
16408;DHT22;8313;49.894;8.084;2024-02-21T13:55:44;10.40;99.90
16408;DHT22;8313;49.894;8.084;2024-02-21T13:58:10;10.40;99.90
16408;DHT22;8313;49.894;8.084;2024-02-21T14:00:36;10.40;99.90
16408;DHT22;8313;49.894;8.084;2024-02-21T14:03:04;10.40;99.90
16408;DHT22;8313;49.894;8.084;2024-02-21T14:05:30;10.40;99.90
16408;DHT22;8313;49.894;8.084;2024-02-21T14:07:56;10.40;99.90
16408;DHT22;8313;49.894;8.084;2024-02-21T14:10:22;10.50;99.90
16408;DHT22;8313;49.894;8.084;2024-02-21T14:12:48;10.40;99.90
16408;DHT22;8313;49.894;8.084;2024-02-21T14:15:14;10.40;99.90
16408;DHT22;8313;49.894;8.084;2024-02-21T14:17:40;10.40;99.90
16408;DHT22;8313;49.894;8.084;2024-02-21T14:20:07;10.40;99.90
16408;DHT22;8313;49.894;8.084;2024-02-21T14:22:33;10.40;99.90
16408;DHT22;8313;49.894;8.084;2024-02-21T14:25:00;10.40;99.90
16408;DHT22;8313;49.894;8.084;2024-02-21T14:27:26;10.40;99.90
16408;DHT22;8313;49.894;8.084;2024-02-21T14:29:51;10.40;99.90
16408;DHT22;8313;49.894;8.084;2024-02-21T14:32:17;10.40;99.90
16408;DHT22;8313;49.894;8.084;2024-02-21T14:34:42;10.50;99.90
16408;DHT22;8313;49.894;8.084;2024-02-21T14:37:08;10.50;99.90
16408;DHT22;8313;49.894;8.084;2024-02-21T14:39:34;10.40;99.90
16408;DHT22;8313;49.894;8.084;2024-02-21T14:42:01;10.50;99.90
16408;DHT22;8313;49.894;8.084;2024-02-21T14:44:26;10.50;99.90
16408;DHT22;8313;49.894;8.084;2024-02-21T14:46:53;10.50;99.90
16408;DHT22;8313;49.894;8.084;2024-02-21T14:49:18;10.50;99.90
16408;DHT22;8313;49.894;8.084;2024-02-21T14:51:44;10.50;99.90
16408;DHT22;8313;49.894;8.084;2024-02-21T14:54:10;10.50;99.90
16408;DHT22;8313;49.894;8.084;2024-02-21T14:56:36;10.40;99.90
16408;DHT22;8313;49.894;8.084;2024-02-21T14:59:02;10.50;99.90
16408;DHT22;8313;49.894;8.084;2024-02-21T15:01:29;10.50;99.90
16408;DHT22;8313;49.894;8.084;2024-02-21T15:03:55;10.50;99.90
16408;DHT22;8313;49.894;8.084;2024-02-21T15:06:20;10.40;99.90
16408;DHT22;8313;49.894;8.084;2024-02-21T15:08:46;10.40;99.90
16408;DHT22;8313;49.894;8.084;2024-02-21T15:11:14;10.50;99.90
16408;DHT22;8313;49.894;8.084;2024-02-21T15:13:40;10.50;99.90
16408;DHT22;8313;49.894;8.084;2024-02-21T15:16:06;10.40;99.90
16408;DHT22;8313;49.894;8.084;2024-02-21T15:18:31;10.40;99.90
16408;DHT22;8313;49.894;8.084;2024-02-21T15:21:03;10.40;99.90
16408;DHT22;8313;49.894;8.084;2024-02-21T15:23:29;10.40;99.90
16408;DHT22;8313;49.894;8.084;2024-02-21T15:25:55;10.40;99.90
16408;DHT22;8313;49.894;8.084;2024-02-21T15:28:20;10.40;99.90
16408;DHT22;8313;49.894;8.084;2024-02-21T15:30:46;10.40;99.90
16408;DHT22;8313;49.894;8.084;2024-02-21T15:33:12;10.40;99.90
16408;DHT22;8313;49.894;8.084;2024-02-21T15:35:38;10.40;99.90
16408;DHT22;8313;49.894;8.084;2024-02-21T15:38:03;10.40;99.90
16408;DHT22;8313;49.894;8.084;2024-02-21T15:40:30;10.40;99.90
16408;DHT22;8313;49.894;8.084;2024-02-21T15:42:56;10.50;99.90
16408;DHT22;8313;49.894;8.084;2024-02-21T15:45:21;10.40;99.90
16408;DHT22;8313;49.894;8.084;2024-02-21T15:47:47;10.40;99.90
16408;DHT22;8313;49.894;8.084;2024-02-21T15:50:13;10.40;99.90
16408;DHT22;8313;49.894;8.084;2024-02-21T15:52:38;10.40;99.90
16408;DHT22;8313;49.894;8.084;2024-02-21T15:55:05;10.40;99.90
16408;DHT22;8313;49.894;8.084;2024-02-21T15:57:32;10.40;99.90
16408;DHT22;8313;49.894;8.084;2024-02-21T15:59:58;10.40;99.90
16408;DHT22;8313;49.894;8.084;2024-02-21T16:02:24;10.40;99.90
16408;DHT22;8313;49.894;8.084;2024-02-21T16:04:50;10.40;99.90
16408;DHT22;8313;49.894;8.084;2024-02-21T16:07:16;10.30;99.90